Talmage, KS

5:46 PM CST on December 20, 2014 (GMT -0600)
Solomon Schools | Change Station
CLOSE
Current Station
Personal Weather Station
Location: Solomon, KS
Elevation: 1237 ft
Nearby Weather Stations

Elev 1237 ft 38.92 °N, 97.37 °W | Updated 2 seconds ago

Partly Cloudy
Partly Cloudy
44.0 °F
Feels Like 41 °F
N
5.0
Wind Variable Wind from SSE
Gusts 10.0 mph

Today
High -- | Low -- °F
--% Chance of Precip.
Yesterday
High -- | Low -- °F
Precip. -- in
7:44 AM 5:09 PM
Waning Crescent, 2% visible
Pressure 30.08 in
Visibility 10.0 miles
Clouds Clear
Windchill 41 °F
Dew Point 40 °F
Humidity 85%
Rainfall 0.04 in
Snow Depth Not available.
UV 2.2 out of 12
Pollen .10 out of 12
Air Quality Not available.
Flu Activity Not available.
METAR KSLN 202253Z 17009KT 10SM CLR 08/04 A3006 RMK AO2 SLP186 T00830044

More Conditions Fewer Conditions

Pressure 30.08 in
Visibility 10.0 miles
Clouds Clear
Windchill 41 °F
Dew Point 40 °F
Humidity 85%
Rainfall 0.04 in
Snow Depth Not available.
UV 2.2 out of 12
Pollen .10 out of 12
Air Quality Not available.
Flu Activity Not available.
METAR KSLN 202253Z 17009KT 10SM CLR 08/04 A3006 RMK AO2 SLP186 T00830044

More Conditions Fewer Conditions

10-Day Weather Forecast

Almanac

Astronomy

Dec. 20, 2014 Rise Set
Actual Time
Civil Twilight
Nautical Twilight
Astronomical Twilight
Moon
Length of Visible Light
Length of Day
Tomorrow will be .
, % of the Moon is Illuminated

Today's Extremes

State Highs State Lows

Community

WunderPhotos

Upload Photos

1,779,319 photos uploaded!

WunderBlogs® & News

Nearby

Air Quality

  Air Quality AQ Index Pollutant
Not available.

Snow Depth

Station Depth Elevation

Earthquake Activity

City Distance Mag. Time & Date
Minimum magnitude displayed is 2.5.

Coastal Water Temperatures

Place Temperature

Nearby Weather Stations